AR74 weather

Cross Ridge County Hospital Heliport
Wynne, Arkansas, United States

Public forecast

Using degrees Fahrenheit for public forecast. Weather courtesy of forecast.io.

METAR (pilot weather report)

Closest report is West Memphis Municipal Airport, 27.5 nm (51.0 km) E. Retrieved 2019/09/22 07:53 UTC (53 minutes ago):

KAWM 220753Z AUTO 17007KT 10SM CLR 22/17 A3008 RMK AO2 SLP180 T02220172 $

TAF (pilot weather forecast)

Closest forecast is Jonesboro Municipal Airport, 37.3 nm (69.2 km) N. Retrieved 2019/09/22 06:22 UTC (2 hours ago):

TAF KJBR 220520Z 2206/2306 17007KT P6SM FEW050 SCT250 FM221500 19016G23KT P6SM SCT050 BKN250 FM230100 20008KT P6SM SCT200